createdAt,value
2018-09-19T00:00:50.114Z,6.9
2018-09-19T00:02:50.126Z,7.6
2018-09-19T00:04:50.330Z,7.4
2018-09-19T00:06:49.570Z,7.4
2018-09-19T00:08:49.642Z,6.9
2018-09-19T00:10:49.707Z,6.9
2018-09-19T00:12:49.763Z,7.4
2018-09-19T00:14:49.840Z,7.6
2018-09-19T00:16:49.968Z,7.5
2018-09-19T00:18:50.033Z,7.6
2018-09-19T00:20:50.113Z,7.6
2018-09-19T00:22:50.096Z,7.3
2018-09-19T00:24:50.122Z,7.4
2018-09-19T00:26:50.342Z,7.3
2018-09-19T00:28:50.525Z,7.3
2018-09-19T00:30:49.547Z,7.3
2018-09-19T00:32:49.639Z,7.5
2018-09-19T00:34:50.044Z,7.4
2018-09-19T00:36:50.187Z,7.4
2018-09-19T00:38:50.182Z,7.3
2018-09-19T00:40:50.267Z,7.6
2018-09-19T00:42:50.259Z,7.4
2018-09-19T00:44:50.261Z,7.3
2018-09-19T00:46:50.528Z,7.3
2018-09-19T00:48:50.485Z,7.1
2018-09-19T00:50:49.555Z,7.2
2018-09-19T00:52:49.637Z,7.8
2018-09-19T00:54:49.648Z,7.4
2018-09-19T00:56:49.935Z,7.4
2018-09-19T00:58:49.915Z,7.5
2018-09-19T01:00:49.923Z,7.5
2018-09-19T01:02:50.040Z,7.6
2018-09-19T01:04:50.406Z,7.5
2018-09-19T01:06:49.649Z,7.8
2018-09-19T01:08:49.691Z,7.8
2018-09-19T01:10:49.661Z,7.5
2018-09-19T01:12:49.780Z,7.9
2018-09-19T01:14:49.933Z,7.9
2018-09-19T01:16:50.051Z,7.9
2018-09-19T01:18:50.109Z,7.9
2018-09-19T01:20:50.115Z,8.0
2018-09-19T01:22:50.183Z,7.8
2018-09-19T01:24:50.222Z,8.5
2018-09-19T01:26:50.508Z,8.0
2018-09-19T01:28:49.543Z,8.0
2018-09-19T01:30:49.666Z,8.0
2018-09-19T01:32:49.699Z,8.1
2018-09-19T01:34:50.291Z,8.1
2018-09-19T01:36:49.686Z,8.1
2018-09-19T01:38:49.812Z,8.2
2018-09-19T01:40:50.002Z,7.7
2018-09-19T01:42:50.051Z,7.7
2018-09-19T01:44:50.116Z,8.3
2018-09-19T01:46:50.277Z,8.5
2018-09-19T01:48:50.226Z,8.3
2018-09-19T01:50:50.308Z,8.5
2018-09-19T01:52:50.405Z,8.7
2018-09-19T01:54:50.422Z,8.7
2018-09-19T01:56:49.556Z,8.8
2018-09-19T01:58:49.692Z,8.6
2018-09-19T02:00:49.756Z,8.6
2018-09-19T02:02:49.776Z,8.5
2018-09-19T02:04:50.003Z,8.5
2018-09-19T02:06:50.162Z,8.8
2018-09-19T02:08:50.292Z,8.6
2018-09-19T02:10:50.324Z,8.5
2018-09-19T02:12:50.380Z,8.5
2018-09-19T02:14:50.396Z,8.5
2018-09-19T02:16:49.614Z,8.5
2018-09-19T02:18:49.558Z,8.3
2018-09-19T02:20:49.690Z,8.2
2018-09-19T02:22:49.786Z,8.2
2018-09-19T02:24:49.854Z,8.6
2018-09-19T02:26:50.094Z,8.3
2018-09-19T02:28:50.103Z,8.8
2018-09-19T02:30:50.096Z,8.7
2018-09-19T02:32:50.119Z,8.7
2018-09-19T02:34:49.607Z,8.3
2018-09-19T02:36:49.785Z,9.0
2018-09-19T02:38:49.842Z,8.4
2018-09-19T02:40:49.823Z,8.9
2018-09-19T02:42:49.841Z,8.9
2018-09-19T02:44:49.853Z,8.9
2018-09-19T02:46:49.987Z,8.3
2018-09-19T02:48:50.071Z,8.8
2018-09-19T02:50:50.033Z,8.8
2018-09-19T02:52:50.044Z,8.9
2018-09-19T02:54:50.082Z,8.9
2018-09-19T02:56:50.173Z,8.9
2018-09-19T02:58:50.238Z,9.0
2018-09-19T03:00:50.306Z,9.0
2018-09-19T03:02:50.284Z,8.5
2018-09-19T03:04:49.670Z,8.8
2018-09-19T03:06:50.015Z,8.8
2018-09-19T03:08:50.093Z,9.0
2018-09-19T03:10:50.301Z,9.1
2018-09-19T03:12:50.396Z,9.1
2018-09-19T03:14:50.419Z,8.9
2018-09-19T03:18:49.556Z,9.2
2018-09-19T03:20:49.611Z,9.1
2018-09-19T03:22:49.847Z,9.1
2018-09-19T03:24:49.919Z,9.1
2018-09-19T03:26:50.113Z,8.8
2018-09-19T03:28:50.081Z,8.8
2018-09-19T03:30:50.108Z,9.3
2018-09-19T03:32:50.154Z,9.3
2018-09-19T03:34:50.328Z,8.7
2018-09-19T03:36:50.503Z,8.7
2018-09-19T03:38:49.577Z,9.1
2018-09-19T03:40:49.839Z,9.1
2018-09-19T03:42:50.056Z,8.6
2018-09-19T03:44:50.428Z,8.6
2018-09-19T03:46:50.154Z,8.8
2018-09-19T03:48:50.580Z,8.8
2018-09-19T03:50:49.837Z,9.5
2018-09-19T03:52:50.077Z,8.7
2018-09-19T03:54:50.433Z,8.7
2018-09-19T03:56:50.058Z,8.4
2018-09-19T03:58:50.426Z,8.4
2018-09-19T04:00:49.936Z,8.7
2018-09-19T04:02:50.185Z,8.6
2018-09-19T04:04:49.854Z,8.6
2018-09-19T04:06:50.295Z,8.2
2018-09-19T04:08:50.556Z,8.2
2018-09-19T04:10:49.632Z,7.9
2018-09-19T04:12:50.039Z,6.9
2018-09-19T04:14:50.412Z,7.1
2018-09-19T04:16:49.866Z,7.1
2018-09-19T04:18:50.094Z,6.3
2018-09-19T04:20:50.528Z,6.5
2018-09-19T04:22:49.753Z,6.3
2018-09-19T04:24:50.043Z,8.1
2018-09-19T04:26:50.145Z,8.1
2018-09-19T04:28:50.548Z,6.5
2018-09-19T04:30:49.951Z,6.5
2018-09-19T04:32:50.333Z,5.8
2018-09-19T04:34:50.306Z,5.7
2018-09-19T04:36:49.883Z,5.7
2018-09-19T04:38:50.164Z,5.7
2018-09-19T04:40:50.213Z,6.0
2018-09-19T04:42:49.536Z,5.7
2018-09-19T04:44:49.755Z,5.7
2018-09-19T04:46:50.182Z,5.3
2018-09-19T04:48:50.421Z,5.3
2018-09-19T04:50:49.731Z,4.9
2018-09-19T04:52:50.163Z,4.9
2018-09-19T04:54:50.423Z,5.4
2018-09-19T04:56:50.149Z,5.0
2018-09-19T04:58:50.336Z,5.0
2018-09-19T05:00:49.629Z,4.6
2018-09-19T05:02:49.827Z,5.1
2018-09-19T05:04:50.503Z,5.1
2018-09-19T05:06:50.108Z,5.1
2018-09-19T05:08:50.507Z,5.3
2018-09-19T05:10:49.759Z,5.1
2018-09-19T05:12:50.292Z,5.3
2018-09-19T05:14:50.520Z,5.3
2018-09-19T05:16:50.031Z,5.5
2018-09-19T05:18:50.264Z,5.0
2018-09-19T05:20:49.541Z,5.4
2018-09-19T05:22:49.995Z,6.2
2018-09-19T05:24:50.186Z,6.2
2018-09-19T05:26:49.616Z,6.7
2018-09-19T05:28:49.860Z,7.9
2018-09-19T05:30:50.137Z,5.7
2018-09-19T05:32:50.332Z,5.4
2018-09-19T05:34:49.973Z,5.4
2018-09-19T05:36:49.932Z,5.3
2018-09-19T05:38:50.225Z,5.6
2018-09-19T05:40:50.529Z,5.1
2018-09-19T05:42:49.683Z,5.1
2018-09-19T05:44:49.810Z,5.7
2018-09-19T05:46:50.264Z,5.8
2018-09-19T05:48:49.519Z,5.2
2018-09-19T05:50:49.872Z,5.3
2018-09-19T05:52:50.108Z,5.3
2018-09-19T05:54:50.231Z,5.2
2018-09-19T05:56:49.626Z,4.9
2018-09-19T05:58:50.038Z,5.2
2018-09-19T06:00:50.392Z,4.5
2018-09-19T06:02:50.519Z,4.5
2018-09-19T06:04:50.360Z,5.1
2018-09-19T06:06:50.088Z,5.1
2018-09-19T06:08:50.435Z,4.8
2018-09-19T06:10:49.830Z,4.9
2018-09-19T06:12:50.288Z,4.9
2018-09-19T06:14:49.827Z,4.8
2018-09-19T06:16:50.498Z,4.8
2018-09-19T06:18:49.717Z,4.7
2018-09-19T06:20:49.976Z,4.7
2018-09-19T06:22:50.217Z,4.5
2018-09-19T06:24:49.813Z,4.9
2018-09-19T06:26:50.351Z,4.7
2018-09-19T06:28:49.759Z,4.2
2018-09-19T06:30:49.986Z,4.2
2018-09-19T06:32:50.325Z,4.4
2018-09-19T06:34:50.457Z,4.4
2018-09-19T06:36:49.952Z,4.5
2018-09-19T06:38:50.341Z,4.1
2018-09-19T06:40:49.982Z,4.1
2018-09-19T06:42:49.825Z,3.8
2018-09-19T06:44:50.067Z,3.8
2018-09-19T06:46:49.782Z,4.2
2018-09-19T06:48:50.401Z,3.8
2018-09-19T06:50:49.607Z,3.9
2018-09-19T06:52:49.875Z,3.9
2018-09-19T06:54:50.192Z,3.9
2018-09-19T06:56:49.726Z,5.8
2018-09-19T06:58:49.949Z,3.6
2018-09-19T07:00:50.180Z,3.6
2018-09-19T07:02:50.527Z,3.6
2018-09-19T07:04:50.074Z,3.6
2018-09-19T07:06:49.645Z,3.5
2018-09-19T07:08:49.755Z,3.6
2018-09-19T07:10:50.043Z,3.6
2018-09-19T07:12:50.339Z,3.3
2018-09-19T07:14:49.699Z,3.8
2018-09-19T07:16:50.292Z,3.4
2018-09-19T07:18:49.725Z,3.4
2018-09-19T07:20:49.925Z,3.7
2018-09-19T07:22:49.918Z,3.6
2018-09-19T07:24:49.960Z,3.5
2018-09-19T07:26:50.115Z,3.2
2018-09-19T07:28:50.109Z,3.2
2018-09-19T07:30:50.252Z,4.8
2018-09-19T07:32:50.393Z,4.8
2018-09-19T07:34:49.871Z,3.7
2018-09-19T07:36:50.089Z,3.6
2018-09-19T07:38:50.207Z,3.6
2018-09-19T07:40:50.247Z,3.4
2018-09-19T07:42:50.253Z,3.4
2018-09-19T07:44:50.359Z,3.8
2018-09-19T07:46:50.497Z,3.4
2018-09-19T07:48:50.489Z,3.4
2018-09-19T07:50:49.618Z,3.2
2018-09-19T07:52:49.683Z,3.2
2018-09-19T07:54:49.951Z,3.4
2018-09-19T07:56:50.129Z,3.5
2018-09-19T07:58:50.395Z,4.1
2018-09-19T08:00:51.034Z,4.1
2018-09-19T08:02:49.808Z,3.1
2018-09-19T08:04:50.111Z,3.3
2018-09-19T08:06:50.231Z,3.3
2018-09-19T08:08:50.309Z,3.1
2018-09-19T08:10:50.363Z,3.3
2018-09-19T08:12:50.400Z,31.6
2018-09-19T08:14:50.403Z,4.0
2018-09-19T08:16:50.660Z,4.0
2018-09-19T08:18:50.183Z,3.6
2018-09-19T08:20:50.300Z,3.7
2018-09-19T08:22:50.363Z,3.1
2018-09-19T08:24:50.401Z,28.1
2018-09-19T08:26:50.493Z,28.1
2018-09-19T08:28:49.554Z,5.4
2018-09-19T08:30:49.617Z,5.4
2018-09-19T08:32:49.723Z,3.7
2018-09-19T08:34:50.084Z,4.4
2018-09-19T08:36:50.200Z,4.4
2018-09-19T08:38:50.262Z,4.1
2018-09-19T08:40:50.278Z,4.0
2018-09-19T08:42:50.447Z,3.6
2018-09-19T08:44:50.474Z,3.8
2018-09-19T08:46:49.701Z,3.8
2018-09-19T08:48:49.765Z,4.1
2018-09-19T08:50:49.929Z,4.1
2018-09-19T08:52:50.003Z,4.1
2018-09-19T08:54:50.052Z,3.7
2018-09-19T08:56:50.209Z,4.3
2018-09-19T08:58:50.219Z,4.3
2018-09-19T09:00:50.256Z,5.6
2018-09-19T09:02:50.339Z,9.4
2018-09-19T09:04:49.796Z,3.8
2018-09-19T09:06:49.993Z,4.1
2018-09-19T09:08:50.025Z,4.1
2018-09-19T09:10:50.154Z,4.0
2018-09-19T09:12:50.429Z,8.9
2018-09-19T09:14:49.802Z,3.9
2018-09-19T09:16:49.977Z,3.9
2018-09-19T09:18:49.998Z,11.7
2018-09-19T09:20:50.046Z,4.4
2018-09-19T09:22:50.143Z,4.4
2018-09-19T09:24:50.374Z,4.4
2018-09-19T09:26:49.802Z,3.4
2018-09-19T09:28:50.313Z,3.8
2018-09-19T09:30:50.488Z,30.7
2018-09-19T09:32:49.518Z,30.7
2018-09-19T09:34:50.116Z,8.1
2018-09-19T09:36:49.842Z,8.1
2018-09-19T09:38:50.255Z,3.3
2018-09-19T09:40:50.231Z,3.6
2018-09-19T09:42:50.320Z,3.2
2018-09-19T09:44:50.336Z,3.2
2018-09-19T09:46:49.594Z,9.0
2018-09-19T09:48:49.686Z,3.7
2018-09-19T09:50:49.752Z,3.2
2018-09-19T09:52:49.821Z,2.8
2018-09-19T09:54:49.930Z,2.8
2018-09-19T09:56:50.112Z,3.1
2018-09-19T09:58:50.142Z,3.3
2018-09-19T10:00:50.182Z,2.9
2018-09-19T10:02:50.341Z,2.9
2018-09-19T10:04:49.650Z,3.3
2018-09-19T10:06:49.834Z,3.3
2018-09-19T10:08:49.922Z,3.2
2018-09-19T10:10:49.898Z,3.2
2018-09-19T10:12:49.863Z,3.8
2018-09-19T10:14:49.934Z,3.8
2018-09-19T10:16:50.184Z,3.1
2018-09-19T10:18:50.125Z,2.9
2018-09-19T10:20:50.068Z,3.0
2018-09-19T10:22:50.073Z,3.0
2018-09-19T10:24:50.038Z,2.8
2018-09-19T10:26:50.201Z,2.8
2018-09-19T10:28:50.144Z,2.8
2018-09-19T10:30:50.093Z,2.6
2018-09-19T10:32:50.068Z,2.5
2018-09-19T10:34:50.366Z,2.5
2018-09-19T10:36:50.489Z,2.5
2018-09-19T10:38:49.551Z,2.7
2018-09-19T10:40:49.549Z,2.4
2018-09-19T10:42:49.666Z,2.5
2018-09-19T10:44:49.661Z,2.5
2018-09-19T10:46:49.881Z,2.4
2018-09-19T10:48:49.926Z,2.7
2018-09-19T10:50:49.886Z,2.5
2018-09-19T10:52:49.811Z,2.5
2018-09-19T10:54:49.900Z,2.7
2018-09-19T10:56:50.230Z,2.7
2018-09-19T10:58:50.542Z,3.7
2018-09-19T11:00:50.518Z,3.7
2018-09-19T11:02:49.614Z,2.5
2018-09-19T11:04:49.939Z,2.6
2018-09-19T11:06:50.206Z,2.3
2018-09-19T11:08:50.168Z,2.6
2018-09-19T11:10:50.141Z,2.6
2018-09-19T11:12:50.156Z,2.5
2018-09-19T11:14:50.098Z,2.5
2018-09-19T11:16:50.198Z,2.3
2018-09-19T11:18:50.157Z,2.3
2018-09-19T11:20:50.152Z,2.3
2018-09-19T11:22:50.191Z,2.4
2018-09-19T11:24:50.347Z,2.6
2018-09-19T11:26:50.498Z,2.3
2018-09-19T11:28:49.542Z,2.3
2018-09-19T11:30:50.495Z,2.9
2018-09-19T11:32:49.523Z,9.1
2018-09-19T11:34:49.919Z,2.4
2018-09-19T11:36:50.167Z,5.9
2018-09-19T11:38:50.115Z,2.4
2018-09-19T11:40:50.072Z,2.4
2018-09-19T11:42:50.105Z,2.2
2018-09-19T11:44:50.034Z,2.1
2018-09-19T11:46:50.112Z,2.1
2018-09-19T11:48:50.206Z,2.3
2018-09-19T11:50:50.267Z,2.6
2018-09-19T11:52:50.251Z,2.5
2018-09-19T11:54:50.186Z,2.4
2018-09-19T11:56:50.307Z,4.0
2018-09-19T11:58:50.324Z,4.0
2018-09-19T12:00:50.274Z,2.4
2018-09-19T12:02:50.436Z,2.4
2018-09-19T12:04:49.697Z,2.1
2018-09-19T12:06:49.903Z,2.6
2018-09-19T12:08:49.821Z,2.6
2018-09-19T12:10:49.756Z,2.4
2018-09-19T12:12:49.691Z,2.4
2018-09-19T12:14:49.690Z,2.6
2018-09-19T12:16:49.847Z,2.4
2018-09-19T12:18:49.846Z,2.4
2018-09-19T12:20:49.781Z,2.4
2018-09-19T12:22:49.793Z,2.4
2018-09-19T12:24:49.779Z,2.4
2018-09-19T12:26:49.858Z,2.4
2018-09-19T12:28:49.919Z,2.9
2018-09-19T12:30:49.891Z,4.0
2018-09-19T12:32:49.857Z,2.7
2018-09-19T12:34:50.126Z,2.4
2018-09-19T12:36:50.274Z,3.1
2018-09-19T12:38:50.504Z,3.1
2018-09-19T12:40:50.498Z,3.4
2018-09-19T12:42:49.583Z,3.3
2018-09-19T12:44:49.551Z,3.3
2018-09-19T12:46:49.618Z,2.6
2018-09-19T12:48:49.726Z,2.3
2018-09-19T12:50:49.655Z,3.4
2018-09-19T12:52:49.635Z,2.4
2018-09-19T12:54:49.700Z,2.4
2018-09-19T12:56:49.896Z,2.4
2018-09-19T12:58:49.980Z,2.7
2018-09-19T13:00:49.965Z,2.5
2018-09-19T13:02:50.045Z,2.3
2018-09-19T13:04:50.306Z,2.3
2018-09-19T13:06:50.472Z,2.5
2018-09-19T13:08:50.481Z,2.7
2018-09-19T13:10:50.469Z,2.3
2018-09-19T13:12:50.426Z,2.6
2018-09-19T13:14:50.470Z,2.6
2018-09-19T13:16:49.736Z,2.7
2018-09-19T13:18:49.960Z,2.7
2018-09-19T13:20:49.994Z,2.6
2018-09-19T13:22:50.300Z,2.5
2018-09-19T13:24:50.246Z,2.6
2018-09-19T13:26:49.679Z,2.6
2018-09-19T13:28:49.712Z,2.7
2018-09-19T13:30:49.785Z,3.0
2018-09-19T13:32:49.767Z,2.8
2018-09-19T13:34:50.070Z,2.7
2018-09-19T13:36:50.203Z,2.7
2018-09-19T13:38:50.418Z,3.2
2018-09-19T13:40:50.302Z,2.8
2018-09-19T13:42:50.327Z,2.8
2018-09-19T13:44:50.309Z,2.8
2018-09-19T13:46:50.466Z,2.7
2018-09-19T13:48:50.474Z,2.9
2018-09-19T13:50:50.345Z,2.9
2018-09-19T13:52:50.297Z,3.4
2018-09-19T13:54:50.320Z,3.4
2018-09-19T13:56:50.424Z,3.1
2018-09-19T13:58:50.537Z,3.0
2018-09-19T14:00:49.850Z,3.0
2018-09-19T14:02:49.851Z,2.9
2018-09-19T14:04:50.048Z,2.8
2018-09-19T14:06:50.336Z,2.8
2018-09-19T14:08:50.408Z,3.1
2018-09-19T14:10:50.329Z,4.0
2018-09-19T14:12:50.328Z,3.1
2018-09-19T14:14:50.297Z,3.1
2018-09-19T14:16:50.480Z,9.1
2018-09-19T14:18:50.483Z,3.1
2018-09-19T14:20:49.616Z,3.0
2018-09-19T14:22:49.715Z,3.0
2018-09-19T14:24:49.701Z,3.1
2018-09-19T14:26:49.795Z,3.1
2018-09-19T14:28:49.808Z,3.1
2018-09-19T14:30:49.759Z,3.3
2018-09-19T14:32:49.752Z,3.3
2018-09-19T14:34:50.034Z,3.1
2018-09-19T14:36:50.203Z,26.1
2018-09-19T14:38:50.182Z,4.4
2018-09-19T14:40:50.178Z,3.3
2018-09-19T14:42:50.171Z,3.7
2018-09-19T14:44:50.117Z,3.7
2018-09-19T14:46:50.297Z,3.4
2018-09-19T14:48:50.405Z,3.0
2018-09-19T14:50:49.872Z,3.0
2018-09-19T14:52:49.961Z,3.4
2018-09-19T14:54:49.960Z,3.4
2018-09-19T14:56:50.170Z,2.9
2018-09-19T14:58:50.098Z,3.0
2018-09-19T15:00:50.120Z,3.3
2018-09-19T15:02:50.179Z,3.2
2018-09-19T15:04:49.583Z,3.2
2018-09-19T15:06:49.801Z,3.4
2018-09-19T15:08:49.849Z,3.2
2018-09-19T15:10:49.814Z,3.1
2018-09-19T15:12:49.795Z,3.1
2018-09-19T15:14:49.825Z,3.1
2018-09-19T15:16:49.979Z,3.0
2018-09-19T15:18:50.023Z,3.3
2018-09-19T15:20:49.968Z,4.8
2018-09-19T15:22:49.997Z,4.8
2018-09-19T15:24:49.930Z,3.3
2018-09-19T15:26:50.336Z,3.3
2018-09-19T15:28:50.294Z,3.3
2018-09-19T15:30:50.434Z,3.4
2018-09-19T15:32:49.572Z,3.2
2018-09-19T15:34:49.970Z,3.4
2018-09-19T15:36:50.198Z,4.0
2018-09-19T15:38:50.204Z,4.0
2018-09-19T15:40:50.157Z,3.4
2018-09-19T15:42:50.177Z,3.5
2018-09-19T15:44:50.161Z,3.5
2018-09-19T15:46:50.318Z,3.9
2018-09-19T15:48:50.328Z,3.9
2018-09-19T15:50:50.258Z,42.3
2018-09-19T15:52:50.394Z,42.3
2018-09-19T15:54:50.357Z,42.3
2018-09-19T15:56:49.541Z,6.8
2018-09-19T15:58:49.680Z,6.8
2018-09-19T16:00:49.716Z,4.1
2018-09-19T16:02:49.755Z,4.1
2018-09-19T16:04:50.075Z,4.1
2018-09-19T16:06:50.345Z,3.9
2018-09-19T16:08:50.270Z,3.9
2018-09-19T16:10:50.307Z,3.7
2018-09-19T16:12:50.279Z,3.7
2018-09-19T16:14:50.342Z,4.0
2018-09-19T16:16:49.552Z,4.0
2018-09-19T16:18:49.552Z,4.3
2018-09-19T16:20:49.711Z,4.3
2018-09-19T16:22:49.981Z,3.9
2018-09-19T16:24:50.034Z,4.0
2018-09-19T16:26:50.296Z,3.9
2018-09-19T16:28:50.230Z,3.9
2018-09-19T16:30:50.240Z,3.8
2018-09-19T16:32:50.231Z,8.7
2018-09-19T16:34:50.506Z,4.0
2018-09-19T16:36:49.753Z,4.3
2018-09-19T16:38:49.769Z,4.3
2018-09-19T16:40:49.744Z,4.0
2018-09-19T16:42:49.739Z,4.0
2018-09-19T16:44:49.774Z,4.0
2018-09-19T16:46:49.890Z,4.0
2018-09-19T16:48:49.966Z,4.0
2018-09-19T16:50:49.994Z,3.8
2018-09-19T16:52:50.062Z,3.7
2018-09-19T16:54:50.138Z,4.0
2018-09-19T16:56:50.377Z,4.0
2018-09-19T16:58:50.360Z,6.0
2018-09-19T17:00:50.375Z,4.4
2018-09-19T17:02:50.325Z,4.4
2018-09-19T17:04:49.693Z,4.3
2018-09-19T17:06:50.088Z,4.3
2018-09-19T17:08:50.040Z,4.1
2018-09-19T17:10:50.001Z,4.0
2018-09-19T17:12:50.178Z,4.1
2018-09-19T17:14:50.205Z,4.3
2018-09-19T17:16:50.396Z,4.7
2018-09-19T17:18:50.316Z,4.7
2018-09-19T17:20:50.409Z,4.3
2018-09-19T17:22:50.388Z,4.3
2018-09-19T17:24:50.406Z,4.3
2018-09-19T17:26:49.736Z,4.3
2018-09-19T17:28:49.733Z,4.2
2018-09-19T17:30:49.703Z,5.3
2018-09-19T17:32:49.796Z,4.7
2018-09-19T17:34:50.281Z,4.7
2018-09-19T17:36:50.409Z,4.0
2018-09-19T17:38:50.447Z,5.3
2018-09-19T17:40:49.557Z,4.3
2018-09-19T17:42:49.578Z,3.9
2018-09-19T17:44:49.604Z,3.9
2018-09-19T17:46:49.804Z,3.8
2018-09-19T17:48:49.835Z,3.6
2018-09-19T17:50:49.980Z,3.6
2018-09-19T17:52:50.028Z,3.5
2018-09-19T17:54:50.141Z,3.5
2018-09-19T17:56:50.249Z,3.7
2018-09-19T17:58:50.391Z,4.0
2018-09-19T18:00:50.553Z,4.0
2018-09-19T18:02:49.907Z,4.0
2018-09-19T18:04:50.253Z,3.9
2018-09-19T18:06:50.516Z,3.6
2018-09-19T18:08:50.508Z,3.7
2018-09-19T18:10:49.551Z,3.9
2018-09-19T18:12:49.531Z,3.9
2018-09-19T18:14:49.672Z,3.9
2018-09-19T18:16:50.025Z,4.0
2018-09-19T18:18:49.936Z,4.0
2018-09-19T18:20:50.022Z,3.9
2018-09-19T18:22:50.131Z,3.9
2018-09-19T18:24:50.147Z,3.7
2018-09-19T18:26:50.266Z,3.8
2018-09-19T18:28:50.276Z,3.9
2018-09-19T18:30:50.343Z,3.9
2018-09-19T18:32:50.371Z,3.9
2018-09-19T18:34:49.725Z,3.8
2018-09-19T18:36:49.961Z,3.9
2018-09-19T18:38:49.978Z,3.8
2018-09-19T18:40:50.005Z,3.9
2018-09-19T18:42:50.141Z,3.9
2018-09-19T18:44:50.176Z,4.6
2018-09-19T18:46:50.503Z,3.9
2018-09-19T18:48:49.595Z,3.8
2018-09-19T18:50:49.711Z,3.8
2018-09-19T18:52:49.689Z,3.8
2018-09-19T18:54:49.668Z,3.8
2018-09-19T18:56:49.877Z,3.9
2018-09-19T18:58:49.921Z,3.6
2018-09-19T19:00:50.021Z,3.8
2018-09-19T19:02:50.051Z,4.2
2018-09-19T19:04:50.290Z,4.2
2018-09-19T19:06:50.573Z,4.1
2018-09-19T19:08:49.574Z,4.1
2018-09-19T19:10:49.651Z,3.8
2018-09-19T19:12:49.684Z,3.9
2018-09-19T19:14:49.703Z,3.9
2018-09-19T19:16:49.831Z,4.2
2018-09-19T19:18:49.970Z,5.9
2018-09-19T19:20:49.684Z,5.9
2018-09-19T19:22:49.672Z,4.0
2018-09-19T19:24:49.698Z,4.1
2018-09-19T19:26:49.989Z,4.1
2018-09-19T19:28:50.102Z,4.0
2018-09-19T19:30:50.102Z,4.5
2018-09-19T19:32:50.174Z,4.5
2018-09-19T19:34:50.512Z,4.1
2018-09-19T19:36:49.733Z,4.6
2018-09-19T19:38:49.734Z,4.6
2018-09-19T19:40:49.819Z,4.6
2018-09-19T19:42:50.000Z,4.6
2018-09-19T19:44:50.136Z,4.3
2018-09-19T19:46:49.662Z,4.5
2018-09-19T19:48:49.653Z,4.8
2018-09-19T19:50:49.702Z,4.8
2018-09-19T19:52:49.838Z,4.7
2018-09-19T19:54:49.872Z,4.6
2018-09-19T19:56:49.998Z,4.3
2018-09-19T19:58:50.010Z,5.1
2018-09-19T20:00:50.001Z,5.1
2018-09-19T20:02:49.950Z,5.1
2018-09-19T20:04:50.198Z,4.7
2018-09-19T20:06:50.460Z,4.7
2018-09-19T20:08:50.403Z,5.0
2018-09-19T20:10:49.546Z,5.0
2018-09-19T20:12:49.685Z,4.9
2018-09-19T20:14:49.711Z,5.2
2018-09-19T20:16:49.811Z,5.1
2018-09-19T20:18:49.799Z,5.1
2018-09-19T20:20:49.763Z,4.8
2018-09-19T20:22:49.930Z,5.3
2018-09-19T20:24:49.897Z,5.6
2018-09-19T20:26:50.301Z,5.5
2018-09-19T20:28:50.246Z,5.5
2018-09-19T20:30:50.378Z,5.4
2018-09-19T20:32:50.447Z,5.4
2018-09-19T20:34:49.666Z,5.9
2018-09-19T20:36:49.856Z,5.6
2018-09-19T20:38:49.824Z,5.7
2018-09-19T20:40:49.895Z,5.7
2018-09-19T20:42:49.948Z,6.4
2018-09-19T20:44:49.951Z,5.9
2018-09-19T20:46:50.257Z,5.7
2018-09-19T20:48:49.527Z,5.7
2018-09-19T20:50:49.579Z,5.8
2018-09-19T20:52:49.639Z,6.0
2018-09-19T20:54:49.694Z,6.3
2018-09-19T20:56:49.862Z,6.3
2018-09-19T20:58:49.865Z,5.4
2018-09-19T21:00:49.961Z,5.4
2018-09-19T21:02:50.051Z,5.9
2018-09-19T21:04:50.406Z,5.8
2018-09-19T21:06:50.076Z,5.8
2018-09-19T21:08:50.100Z,5.7
2018-09-19T21:10:50.046Z,5.9
2018-09-19T21:12:50.070Z,6.2
2018-09-19T21:14:50.035Z,5.9
2018-09-19T21:16:50.387Z,5.9
2018-09-19T21:18:50.391Z,6.0
2018-09-19T21:20:50.559Z,5.6
2018-09-19T21:22:49.589Z,5.9
2018-09-19T21:24:49.656Z,6.0
2018-09-19T21:26:50.142Z,6.0
2018-09-19T21:28:50.117Z,6.1
2018-09-19T21:30:50.139Z,6.4
2018-09-19T21:32:50.191Z,6.0
2018-09-19T21:34:50.451Z,6.1
2018-09-19T21:36:49.571Z,6.1
2018-09-19T21:38:49.717Z,5.9
2018-09-19T21:40:49.908Z,6.3
2018-09-19T21:42:50.308Z,5.7
2018-09-19T21:44:50.428Z,5.7
2018-09-19T21:46:49.801Z,6.7
2018-09-19T21:48:49.810Z,6.1
2018-09-19T21:50:49.784Z,6.0
2018-09-19T21:52:49.823Z,6.0
2018-09-19T21:54:49.824Z,6.0
2018-09-19T21:56:49.968Z,6.1
2018-09-19T21:58:50.003Z,5.9
2018-09-19T22:00:49.968Z,5.9
2018-09-19T22:02:50.027Z,6.9
2018-09-19T22:04:50.338Z,6.9
2018-09-19T22:06:49.763Z,6.2
2018-09-19T22:08:49.744Z,6.0
2018-09-19T22:10:49.761Z,5.8
2018-09-19T22:12:49.775Z,5.7
2018-09-19T22:14:49.809Z,5.7
2018-09-19T22:16:50.041Z,5.9
2018-09-19T22:18:49.997Z,6.2
2018-09-19T22:20:49.986Z,6.3
2018-09-19T22:22:50.040Z,6.3
2018-09-19T22:24:50.043Z,6.3
2018-09-19T22:26:50.237Z,6.3
2018-09-19T22:28:50.273Z,6.3
2018-09-19T22:30:50.288Z,6.5
2018-09-19T22:32:50.249Z,6.5
2018-09-19T22:34:49.607Z,7.0
2018-09-19T22:36:49.821Z,6.4
2018-09-19T22:38:49.930Z,6.0
2018-09-19T22:40:49.932Z,6.2
2018-09-19T22:42:49.986Z,6.2
2018-09-19T22:44:50.028Z,5.9
2018-09-19T22:46:50.228Z,6.1
2018-09-19T22:48:50.197Z,6.4
2018-09-19T22:50:50.261Z,6.4
2018-09-19T22:52:50.292Z,6.2
2018-09-19T22:54:50.457Z,6.5
2018-09-19T22:56:49.655Z,6.5
2018-09-19T22:58:49.690Z,6.2
2018-09-19T23:00:49.658Z,6.2
2018-09-19T23:02:49.808Z,6.5
2018-09-19T23:04:50.204Z,6.5
2018-09-19T23:06:50.396Z,6.2
2018-09-19T23:08:50.339Z,6.2
2018-09-19T23:10:50.460Z,6.2
2018-09-19T23:12:50.415Z,6.2
2018-09-19T23:14:50.435Z,6.4
2018-09-19T23:16:49.696Z,6.6
2018-09-19T23:18:49.651Z,6.5
2018-09-19T23:20:49.696Z,6.5
2018-09-19T23:22:49.744Z,6.3
2018-09-19T23:24:50.479Z,6.6
2018-09-19T23:26:49.659Z,6.1
2018-09-19T23:28:49.762Z,6.6
2018-09-19T23:30:49.716Z,6.6
2018-09-19T23:32:49.738Z,6.8
2018-09-19T23:34:50.178Z,6.5
2018-09-19T23:36:50.408Z,6.3
2018-09-19T23:38:49.580Z,6.3
2018-09-19T23:40:49.664Z,6.9
2018-09-19T23:42:49.642Z,6.6
2018-09-19T23:44:49.674Z,6.6
2018-09-19T23:46:49.978Z,7.1
2018-09-19T23:48:49.950Z,6.8
2018-09-19T23:50:49.974Z,6.4
2018-09-19T23:52:50.026Z,6.4
2018-09-19T23:54:49.967Z,6.4
2018-09-19T23:56:50.151Z,7.1
2018-09-19T23:58:50.059Z,7.5
